createdAt,value
2022-08-26T00:10:18.430Z,19.12
2022-08-26T00:12:45.960Z,19.18
2022-08-26T00:15:17.035Z,19.20
2022-08-26T00:18:21.919Z,19.17
2022-08-26T00:24:49.625Z,19.07
2022-08-26T00:31:17.040Z,19.06
2022-08-26T00:33:44.677Z,19.08
2022-08-26T00:36:19.930Z,19.08
2022-08-26T00:43:29.974Z,18.96
2022-08-26T00:46:30.260Z,18.95
2022-08-26T00:53:12.289Z,18.86
2022-08-26T00:55:45.661Z,18.89
2022-08-26T00:58:13.202Z,18.90
2022-08-26T01:04:37.009Z,18.81
2022-08-26T01:08:01.772Z,18.79
2022-08-26T01:10:31.669Z,18.72
2022-08-26T01:22:00.217Z,18.56
2022-08-26T01:24:30.292Z,18.58
2022-08-26T01:27:33.607Z,18.57
2022-08-26T01:30:05.146Z,18.55
2022-08-26T01:36:30.952Z,18.46
2022-08-26T01:42:50.138Z,18.40
2022-08-26T01:46:07.892Z,18.40
2022-08-26T01:48:39.400Z,18.38
2022-08-26T01:55:32.167Z,18.34
2022-08-26T02:14:48.028Z,18.03
2022-08-26T02:17:23.756Z,18.06
2022-08-26T02:19:51.475Z,18.08
2022-08-26T02:22:22.325Z,18.06
2022-08-26T02:25:09.860Z,18.02
2022-08-26T02:31:36.952Z,17.90
2022-08-26T02:35:00.533Z,17.86
2022-08-26T02:37:31.638Z,17.81
2022-08-26T02:44:34.148Z,17.67
2022-08-26T02:55:12.037Z,17.50
2022-08-26T03:05:58.353Z,17.32
2022-08-26T03:08:25.564Z,17.32
2022-08-26T03:10:52.980Z,17.33
2022-08-26T03:17:29.940Z,17.23
2022-08-26T03:19:57.829Z,17.19
2022-08-26T03:22:26.296Z,17.17
2022-08-26T03:24:54.776Z,17.15
2022-08-26T03:27:22.389Z,17.11
2022-08-26T03:29:49.934Z,17.06
2022-08-26T03:32:18.162Z,17.03
2022-08-26T03:34:45.906Z,17.02
2022-08-26T03:37:14.722Z,16.99
2022-08-26T03:39:42.499Z,16.93
2022-08-26T03:46:06.166Z,16.81
2022-08-26T03:48:34.026Z,16.79
2022-08-26T03:54:43.574Z,16.67
2022-08-26T03:57:11.064Z,16.68
2022-08-26T03:59:38.689Z,16.66
2022-08-26T04:02:11.760Z,16.67
2022-08-26T04:12:03.604Z,16.53
2022-08-26T04:14:31.184Z,16.55
2022-08-26T04:20:50.992Z,16.47
2022-08-26T04:31:01.978Z,16.34
2022-08-26T04:33:32.412Z,16.36
2022-08-26T04:36:14.325Z,16.37
2022-08-26T04:38:43.313Z,16.37
2022-08-26T04:45:05.911Z,16.30
2022-08-26T04:47:38.162Z,16.28
2022-08-26T04:53:47.355Z,16.26
2022-08-26T04:56:15.086Z,16.27
2022-08-26T04:58:42.632Z,16.28
2022-08-26T05:05:01.440Z,16.20
2022-08-26T05:07:44.671Z,16.21
2022-08-26T05:10:12.571Z,16.19
2022-08-26T05:12:55.301Z,16.20
2022-08-26T05:15:23.879Z,16.21
2022-08-26T05:17:51.417Z,16.24
2022-08-26T05:20:22.615Z,16.25
2022-08-26T05:22:53.266Z,16.24
2022-08-26T05:25:21.206Z,16.24
2022-08-26T05:27:48.814Z,16.24
2022-08-26T05:30:16.444Z,16.24
2022-08-26T05:32:44.149Z,16.26
2022-08-26T05:35:11.781Z,16.25
2022-08-26T05:37:39.376Z,16.29
2022-08-26T05:40:07.495Z,16.27
2022-08-26T05:42:36.021Z,16.26
2022-08-26T05:45:04.306Z,16.29
2022-08-26T05:47:32.052Z,16.30
2022-08-26T05:49:59.977Z,16.32
2022-08-26T05:52:27.585Z,16.32
2022-08-26T05:54:55.685Z,16.36
2022-08-26T05:57:23.290Z,16.41
2022-08-26T05:59:51.537Z,16.46
2022-08-26T06:02:19.089Z,16.53
2022-08-26T06:04:46.988Z,16.62
2022-08-26T06:07:14.584Z,16.69
2022-08-26T06:09:42.436Z,16.77
2022-08-26T06:12:10.220Z,16.86
2022-08-26T06:14:37.804Z,16.96
2022-08-26T06:17:05.393Z,17.05
2022-08-26T06:19:34.429Z,17.16
2022-08-26T06:22:02.171Z,17.26
2022-08-26T06:24:29.807Z,17.31
2022-08-26T06:27:01.356Z,17.40
2022-08-26T06:29:31.900Z,17.47
2022-08-26T06:31:59.822Z,17.55
2022-08-26T06:34:30.399Z,17.65
2022-08-26T06:37:04.039Z,17.76
2022-08-26T06:39:34.278Z,17.84
2022-08-26T06:42:02.930Z,17.96
2022-08-26T06:44:30.966Z,18.05
2022-08-26T06:47:00.282Z,18.15
2022-08-26T06:49:28.029Z,18.25
2022-08-26T06:51:56.845Z,18.34
2022-08-26T06:54:26.424Z,18.41
2022-08-26T06:56:54.190Z,18.48
2022-08-26T06:59:21.697Z,18.55
2022-08-26T07:01:49.747Z,18.63
2022-08-26T07:04:21.899Z,18.70
2022-08-26T07:06:52.802Z,18.80
2022-08-26T07:09:23.420Z,18.83
2022-08-26T07:11:52.254Z,18.88
2022-08-26T07:14:21.505Z,18.96
2022-08-26T07:16:52.857Z,19.01
2022-08-26T07:19:29.883Z,19.00
2022-08-26T07:22:03.445Z,19.08
2022-08-26T07:24:32.794Z,19.13
2022-08-26T07:27:07.047Z,19.17
2022-08-26T07:29:37.190Z,19.23
2022-08-26T07:32:05.332Z,19.31
2022-08-26T07:38:14.220Z,19.36
2022-08-26T07:44:23.414Z,19.37
2022-08-26T07:46:52.102Z,19.41
2022-08-26T07:49:22.081Z,19.44
2022-08-26T07:51:50.046Z,19.48
2022-08-26T07:54:17.728Z,19.52
2022-08-26T08:00:59.178Z,19.59
2022-08-26T08:03:27.443Z,19.65
2022-08-26T08:05:55.056Z,19.73
2022-08-26T08:08:27.608Z,19.81
2022-08-26T08:14:37.730Z,19.94
2022-08-26T08:20:59.063Z,20.06
2022-08-26T08:23:33.715Z,20.13
2022-08-26T08:26:11.562Z,20.22
2022-08-26T08:28:39.996Z,20.29
2022-08-26T08:35:00.181Z,20.47
2022-08-26T08:37:27.667Z,20.58
2022-08-26T08:39:55.633Z,20.69
2022-08-26T08:42:43.964Z,20.71
2022-08-26T08:45:42.053Z,20.81
2022-08-26T08:52:40.685Z,20.84
2022-08-26T08:59:19.354Z,20.90
2022-08-26T09:02:33.370Z,20.94
2022-08-26T09:09:32.907Z,21.01
2022-08-26T09:16:37.370Z,21.26
2022-08-26T09:19:25.520Z,21.36
2022-08-26T09:22:02.873Z,21.47
2022-08-26T09:24:41.979Z,21.57
2022-08-26T09:31:25.830Z,21.79
2022-08-26T09:34:31.000Z,21.89
2022-08-26T09:37:00.872Z,21.99
2022-08-26T09:39:38.311Z,22.14
2022-08-26T09:42:19.002Z,22.24
2022-08-26T09:44:55.685Z,22.38
2022-08-26T09:47:31.994Z,22.52
2022-08-26T09:50:23.469Z,22.64
2022-08-26T09:53:30.343Z,22.72
2022-08-26T10:00:00.287Z,22.84
2022-08-26T10:10:44.656Z,23.20
2022-08-26T10:13:33.176Z,23.37
2022-08-26T10:16:16.792Z,23.47
2022-08-26T10:19:05.726Z,23.58
2022-08-26T10:21:42.824Z,23.70
2022-08-26T10:24:20.484Z,23.82
2022-08-26T10:27:05.641Z,23.95
2022-08-26T10:29:47.071Z,24.05
2022-08-26T10:32:36.360Z,24.13
2022-08-26T10:43:31.311Z,24.69
2022-08-26T10:46:08.641Z,24.92
2022-08-26T10:48:52.502Z,25.31
2022-08-26T10:59:58.426Z,27.40
2022-08-26T11:06:18.334Z,29.21
2022-08-26T11:13:05.021Z,30.55
2022-08-26T11:15:32.186Z,31.08
2022-08-26T11:18:05.218Z,31.53
2022-08-26T11:25:06.448Z,31.05
2022-08-26T11:35:54.067Z,28.24
2022-08-26T11:46:31.117Z,26.95
2022-08-26T11:49:06.614Z,26.84
2022-08-26T11:51:40.069Z,26.67
2022-08-26T11:54:30.702Z,26.54
2022-08-26T11:57:11.654Z,26.36
2022-08-26T11:59:41.787Z,26.17
2022-08-26T12:06:30.418Z,25.74
2022-08-26T12:09:02.443Z,25.63
2022-08-26T12:15:39.603Z,26.24
2022-08-26T12:18:29.150Z,26.70
2022-08-26T12:21:00.912Z,27.15
2022-08-26T12:23:31.336Z,27.44
2022-08-26T12:26:26.933Z,27.50
2022-08-26T12:33:14.164Z,27.22
2022-08-26T12:40:25.412Z,26.87
2022-08-26T12:42:53.851Z,26.76
2022-08-26T12:45:38.034Z,26.61
2022-08-26T12:48:26.016Z,26.51
2022-08-26T12:54:56.739Z,26.19
2022-08-26T12:57:30.834Z,26.14
2022-08-26T13:00:23.137Z,26.03
2022-08-26T13:02:56.974Z,25.96
2022-08-26T13:05:32.873Z,25.92
2022-08-26T13:08:25.206Z,25.90
2022-08-26T13:11:12.282Z,26.03
2022-08-26T13:13:40.324Z,26.27
2022-08-26T13:20:30.932Z,26.74
2022-08-26T13:22:59.383Z,26.90
2022-08-26T13:25:27.082Z,27.06
2022-08-26T13:27:54.652Z,27.13
2022-08-26T13:34:04.668Z,26.99
2022-08-26T13:36:31.911Z,26.82
2022-08-26T13:38:59.145Z,26.67
2022-08-26T13:46:41.551Z,26.09
2022-08-26T13:49:14.426Z,25.97
2022-08-26T13:51:41.881Z,25.82
2022-08-26T13:54:09.342Z,25.77
2022-08-26T13:56:36.767Z,25.62
2022-08-26T13:59:06.549Z,25.62
2022-08-26T14:01:35.813Z,25.68
2022-08-26T14:04:03.446Z,25.68
2022-08-26T14:10:40.449Z,25.60
2022-08-26T14:13:08.114Z,25.59
2022-08-26T14:15:37.931Z,25.48
2022-08-26T14:18:13.110Z,25.47
2022-08-26T14:20:50.553Z,25.49
2022-08-26T14:23:17.943Z,25.45
2022-08-26T14:25:45.236Z,25.36
2022-08-26T14:28:12.564Z,25.28
2022-08-26T14:34:50.121Z,25.20
2022-08-26T14:37:17.575Z,25.26
2022-08-26T14:39:46.184Z,25.33
2022-08-26T14:46:24.160Z,25.71
2022-08-26T14:48:51.436Z,25.73
2022-08-26T14:51:50.351Z,25.65
2022-08-26T14:54:18.525Z,25.56
2022-08-26T14:57:08.348Z,25.40
2022-08-26T15:00:25.073Z,25.28
2022-08-26T15:02:56.326Z,25.17
2022-08-26T15:05:23.978Z,25.30
2022-08-26T15:07:54.326Z,25.61
2022-08-26T15:10:23.351Z,25.70
2022-08-26T15:16:54.912Z,25.47
2022-08-26T15:19:24.422Z,25.36
2022-08-26T15:21:52.297Z,25.26
2022-08-26T15:24:23.366Z,25.14
2022-08-26T15:26:51.681Z,25.01
2022-08-26T15:29:19.725Z,24.90
2022-08-26T15:31:47.842Z,24.77
2022-08-26T15:34:17.244Z,24.70
2022-08-26T15:36:47.432Z,24.62
2022-08-26T15:39:16.910Z,24.56
2022-08-26T15:41:44.756Z,24.49
2022-08-26T15:44:13.728Z,24.41
2022-08-26T15:46:41.691Z,24.35
2022-08-26T15:49:09.544Z,24.22
2022-08-26T15:51:46.246Z,24.13
2022-08-26T15:54:15.298Z,24.09
2022-08-26T15:56:43.594Z,24.10
2022-08-26T16:02:45.459Z,24.04
2022-08-26T16:08:55.542Z,24.02
2022-08-26T16:15:04.484Z,23.94
2022-08-26T16:21:22.530Z,23.97
2022-08-26T16:23:50.526Z,24.05
2022-08-26T16:30:10.522Z,24.09
2022-08-26T16:32:38.101Z,24.13
2022-08-26T16:35:06.349Z,24.14
2022-08-26T16:41:29.148Z,23.93
2022-08-26T16:43:57.217Z,23.87
2022-08-26T16:50:22.222Z,23.60
2022-08-26T16:52:54.273Z,23.52
2022-08-26T16:55:25.025Z,23.49
2022-08-26T16:57:52.926Z,23.48
2022-08-26T17:00:30.313Z,23.42
2022-08-26T17:02:59.628Z,23.42
2022-08-26T17:05:28.906Z,23.36
2022-08-26T17:07:58.843Z,23.30
2022-08-26T17:14:10.393Z,23.08
2022-08-26T17:17:09.946Z,23.02
2022-08-26T17:19:47.371Z,22.93
2022-08-26T17:22:15.648Z,22.88
2022-08-26T17:24:43.445Z,22.81
2022-08-26T17:27:11.447Z,22.73
2022-08-26T17:29:39.372Z,22.67
2022-08-26T17:32:07.041Z,22.61
2022-08-26T17:34:34.745Z,22.54
2022-08-26T17:37:02.353Z,22.47
2022-08-26T17:39:30.017Z,22.40
2022-08-26T17:41:59.192Z,22.24
2022-08-26T17:44:26.883Z,22.21
2022-08-26T17:46:54.542Z,22.14
2022-08-26T17:49:22.153Z,22.12
2022-08-26T17:51:50.826Z,22.05
2022-08-26T17:54:18.511Z,22.02
2022-08-26T17:56:49.232Z,21.99
2022-08-26T17:59:17.461Z,21.94
2022-08-26T18:01:45.724Z,21.84
2022-08-26T18:04:14.968Z,21.80
2022-08-26T18:06:42.917Z,21.75
2022-08-26T18:09:10.932Z,21.71
2022-08-26T18:11:40.202Z,21.68
2022-08-26T18:14:08.062Z,21.60
2022-08-26T18:16:36.096Z,21.55
2022-08-26T18:19:04.928Z,21.48
2022-08-26T18:21:33.683Z,21.42
2022-08-26T18:24:01.485Z,21.38
2022-08-26T18:26:41.212Z,21.32
2022-08-26T18:29:11.564Z,21.25
2022-08-26T18:31:39.322Z,21.21
2022-08-26T18:34:15.693Z,21.14
2022-08-26T18:36:44.606Z,21.03
2022-08-26T18:39:17.550Z,20.97
2022-08-26T18:41:51.287Z,20.92
2022-08-26T18:44:23.957Z,20.86
2022-08-26T18:47:00.565Z,20.84
2022-08-26T18:49:31.990Z,20.82
2022-08-26T18:51:59.779Z,20.77
2022-08-26T18:54:28.715Z,20.73
2022-08-26T18:56:56.349Z,20.69
2022-08-26T18:59:26.854Z,20.60
2022-08-26T19:01:58.204Z,20.58
2022-08-26T19:04:26.234Z,20.58
2022-08-26T19:06:53.825Z,20.55
2022-08-26T19:09:21.502Z,20.51
2022-08-26T19:11:49.840Z,20.47
2022-08-26T19:14:18.809Z,20.45
2022-08-26T19:16:49.001Z,20.42
2022-08-26T19:19:16.932Z,20.39
2022-08-26T19:21:44.629Z,20.36
2022-08-26T19:24:15.461Z,20.33
2022-08-26T19:26:45.281Z,20.31
2022-08-26T19:29:14.175Z,20.29
2022-08-26T19:31:41.967Z,20.28
2022-08-26T19:34:24.670Z,20.21
2022-08-26T19:36:53.227Z,20.19
2022-08-26T19:39:22.495Z,20.12
2022-08-26T19:41:50.303Z,20.12
2022-08-26T19:44:19.988Z,20.11
2022-08-26T19:46:47.218Z,20.09
2022-08-26T19:49:14.535Z,20.06
2022-08-26T19:51:41.751Z,20.02
2022-08-26T19:54:08.916Z,20.02
2022-08-26T19:56:36.411Z,19.97
2022-08-26T19:59:03.788Z,19.93
2022-08-26T20:01:31.036Z,19.87
2022-08-26T20:03:58.352Z,19.84
2022-08-26T20:06:25.602Z,19.83
2022-08-26T20:08:53.880Z,19.78
2022-08-26T20:11:22.321Z,19.75
2022-08-26T20:13:49.582Z,19.68
2022-08-26T20:16:17.470Z,19.59
2022-08-26T20:18:45.586Z,19.56
2022-08-26T20:21:13.902Z,19.56
2022-08-26T20:23:41.523Z,19.52
2022-08-26T20:26:08.812Z,19.49
2022-08-26T20:28:36.209Z,19.46
2022-08-26T20:31:03.612Z,19.42
2022-08-26T20:33:45.983Z,19.41
2022-08-26T20:36:15.495Z,19.39
2022-08-26T20:38:43.161Z,19.37
2022-08-26T20:41:10.333Z,19.35
2022-08-26T20:43:37.667Z,19.32
2022-08-26T20:46:09.937Z,19.30
2022-08-26T20:48:45.644Z,19.27
2022-08-26T20:51:13.156Z,19.28
2022-08-26T20:53:40.566Z,19.24
2022-08-26T20:56:10.956Z,19.24
2022-08-26T20:58:38.839Z,19.23
2022-08-26T21:01:08.342Z,19.21
2022-08-26T21:03:36.844Z,19.20
2022-08-26T21:06:04.371Z,19.19
2022-08-26T21:08:33.060Z,19.20
2022-08-26T21:11:02.050Z,19.18
2022-08-26T21:13:42.917Z,19.14
2022-08-26T21:16:19.604Z,19.11
2022-08-26T21:18:47.625Z,19.11
2022-08-26T21:21:14.758Z,19.08
2022-08-26T21:23:41.960Z,19.07
2022-08-26T21:26:14.271Z,19.03
2022-08-26T21:28:44.291Z,19.00
2022-08-26T21:31:17.534Z,18.99
2022-08-26T21:33:45.183Z,18.97
2022-08-26T21:36:14.554Z,18.96
2022-08-26T21:38:42.394Z,18.96
2022-08-26T21:41:12.721Z,18.96
2022-08-26T21:43:42.152Z,18.95
2022-08-26T21:46:14.167Z,18.96
2022-08-26T21:48:48.744Z,18.97
2022-08-26T21:51:21.276Z,19.01
2022-08-26T21:53:49.758Z,19.00
2022-08-26T21:56:19.636Z,18.99
2022-08-26T21:58:46.922Z,18.97
2022-08-26T22:01:19.698Z,18.95
2022-08-26T22:03:49.148Z,19.01
2022-08-26T22:06:18.857Z,19.04
2022-08-26T22:08:46.438Z,19.03
2022-08-26T22:11:14.938Z,18.99
2022-08-26T22:13:43.793Z,18.95
2022-08-26T22:16:12.501Z,18.89
2022-08-26T22:18:40.783Z,18.85
2022-08-26T22:21:14.408Z,18.78
2022-08-26T22:23:41.918Z,18.77
2022-08-26T22:26:12.849Z,18.75
2022-08-26T22:28:40.335Z,18.74
2022-08-26T22:31:11.024Z,18.69
2022-08-26T22:33:40.929Z,18.65
2022-08-26T22:36:18.746Z,18.65
2022-08-26T22:38:47.411Z,18.66
2022-08-26T22:41:15.635Z,18.61
2022-08-26T22:43:42.800Z,18.63
2022-08-26T22:46:17.042Z,18.62
2022-08-26T22:48:44.525Z,18.59
2022-08-26T22:51:12.457Z,18.60
2022-08-26T22:53:41.534Z,18.59
2022-08-26T22:56:09.923Z,18.57
2022-08-26T22:58:37.440Z,18.58
2022-08-26T23:01:06.899Z,18.50
2022-08-26T23:03:35.362Z,18.49
2022-08-26T23:06:06.805Z,18.51
2022-08-26T23:08:34.135Z,18.49
2022-08-26T23:11:01.669Z,18.49
2022-08-26T23:13:28.922Z,18.47
2022-08-26T23:16:08.872Z,18.45
2022-08-26T23:18:37.104Z,18.48
2022-08-26T23:21:04.739Z,18.51
2022-08-26T23:23:33.271Z,18.52
2022-08-26T23:26:03.346Z,18.53
2022-08-26T23:28:36.088Z,18.56
2022-08-26T23:31:03.730Z,18.54
2022-08-26T23:33:31.182Z,18.53
2022-08-26T23:36:06.453Z,18.52
2022-08-26T23:38:33.610Z,18.53
2022-08-26T23:41:02.398Z,18.53
2022-08-26T23:47:28.992Z,18.41
2022-08-26T23:49:56.240Z,18.44
2022-08-26T23:56:33.528Z,18.41
2022-08-26T23:59:00.775Z,18.41
